Time;durP1;ratioP1;P1;durP2;ratioP2;P2;SDS_P1;SDS_P2;PMS_P1;PMS_P2;Temp;Humidity;BMP_temperature;BMP_pressure;BME280_temperature;BME280_humidity;BME280_pressure;Samples;Min_cycle;Max_cycle;Signal;HPM_P1;HPM_P2
2021/12/31 00:00:14;;;;;;;9.00;8.70;;;12.50;99.90;;;;;;5081715;28;20230;-82
2021/12/31 00:02:42;;;;;;;9.30;9.00;;;12.50;99.90;;;;;;5082150;28;21108;-79
2021/12/31 00:05:12;;;;;;;9.20;8.90;;;12.50;99.90;;;;;;5144490;22;20217;-80
2021/12/31 00:07:41;;;;;;;9.13;8.83;;;12.50;99.90;;;;;;5141555;27;20193;-79
2021/12/31 00:10:09;;;;;;;9.20;8.90;;;12.50;99.90;;;;;;5138301;27;20256;-82
2021/12/31 00:12:40;;;;;;;9.10;8.80;;;12.60;99.90;;;;;;5124842;27;20235;-80
2021/12/31 00:15:08;;;;;;;9.00;8.70;;;12.60;99.90;;;;;;5123889;27;20213;-81
2021/12/31 00:17:38;;;;;;;8.97;8.67;;;12.60;99.90;;;;;;5124970;28;20233;-82
2021/12/31 00:20:12;;;;;;;8.93;8.63;;;12.60;99.90;;;;;;5125522;28;20228;-81
2021/12/31 00:25:31;;;;;;;9.10;8.80;;;12.60;99.90;;;;;;5107225;28;20217;-81
2021/12/31 00:27:58;;;;;;;9.20;8.90;;;12.60;99.90;;;;;;5123986;28;20255;-81
2021/12/31 00:30:27;;;;;;;9.20;8.90;;;12.70;99.90;;;;;;5123663;28;20244;-81
2021/12/31 00:32:54;;;;;;;9.00;8.70;;;12.70;99.90;;;;;;5122122;27;20228;-82
2021/12/31 00:35:22;;;;;;;9.00;8.70;;;12.70;99.90;;;;;;5121030;28;20279;-81
2021/12/31 00:37:52;;;;;;;9.33;9.03;;;12.70;99.90;;;;;;5124130;28;20232;-81
2021/12/31 00:40:20;;;;;;;9.10;8.80;;;12.70;99.90;;;;;;5131726;28;20220;-81
2021/12/31 00:42:48;;;;;;;9.10;8.80;;;12.70;99.90;;;;;;5127255;28;20295;-81
2021/12/31 00:45:19;;;;;;;9.10;8.80;;;12.70;99.90;;;;;;5129117;27;20233;-81
2021/12/31 00:47:48;;;;;;;9.30;9.00;;;12.70;99.90;;;;;;5125347;28;20220;-81
2021/12/31 00:50:17;;;;;;;9.20;8.90;;;12.70;99.90;;;;;;5122877;28;20224;-80
2021/12/31 00:52:45;;;;;;;9.30;9.00;;;12.70;99.90;;;;;;5122651;28;20228;-81
2021/12/31 00:55:14;;;;;;;9.13;8.83;;;12.70;99.90;;;;;;5122461;28;20233;-81
2021/12/31 00:57:44;;;;;;;9.10;8.80;;;12.70;99.90;;;;;;5122149;27;20233;-81
2021/12/31 01:00:15;;;;;;;9.10;8.80;;;12.70;99.90;;;;;;5123832;28;20251;-81
2021/12/31 01:02:44;;;;;;;9.17;8.87;;;12.60;99.90;;;;;;5121637;28;20232;-81
2021/12/31 01:05:12;;;;;;;9.40;9.10;;;12.60;99.90;;;;;;5118346;28;20316;-81
2021/12/31 01:07:41;;;;;;;9.13;8.83;;;12.60;99.90;;;;;;5119485;28;20259;-81
2021/12/31 01:10:13;;;;;;;9.47;9.17;;;12.70;99.90;;;;;;5119122;28;20220;-81
2021/12/31 01:12:43;;;;;;;9.20;8.90;;;12.70;99.90;;;;;;5119082;28;20228;-82
2021/12/31 01:15:18;;;;;;;9.20;8.90;;;12.60;99.90;;;;;;5120173;28;20225;-81
2021/12/31 01:20:34;;;;;;;9.10;8.80;;;12.70;99.90;;;;;;5109452;27;20281;-81
2021/12/31 01:23:04;;;;;;;9.07;8.77;;;12.70;99.90;;;;;;5119214;28;20209;-80
2021/12/31 01:25:32;;;;;;;9.20;8.90;;;12.70;99.90;;;;;;5120857;28;20232;-81
2021/12/31 01:28:01;;;;;;;9.10;8.80;;;12.70;99.90;;;;;;5122455;27;20221;-81
2021/12/31 01:30:29;;;;;;;9.20;8.90;;;12.70;99.90;;;;;;5120787;28;20240;-81
2021/12/31 01:32:56;;;;;;;9.47;9.17;;;12.70;99.90;;;;;;5119939;28;20225;-81
2021/12/31 01:35:24;;;;;;;9.23;8.93;;;12.70;99.90;;;;;;5120116;28;20229;-80
2021/12/31 01:37:52;;;;;;;9.10;8.80;;;12.70;99.90;;;;;;5120007;28;20229;-81
2021/12/31 01:40:20;;;;;;;9.00;8.70;;;12.70;99.90;;;;;;5120006;28;20286;-82
2021/12/31 01:42:48;;;;;;;9.03;8.73;;;12.70;99.90;;;;;;5120176;28;20221;-82
2021/12/31 01:45:20;;;;;;;8.90;8.60;;;12.60;99.90;;;;;;5119447;28;20228;-81
2021/12/31 01:48:06;;;;;;;8.93;8.63;;;12.60;99.90;;;;;;5119946;27;20235;-81
2021/12/31 01:50:37;;;;;;;9.10;8.80;;;12.60;99.90;;;;;;5120773;28;20233;-81
2021/12/31 01:53:05;;;;;;;9.10;8.80;;;12.60;99.90;;;;;;5120012;28;20292;-81
2021/12/31 01:55:34;;;;;;;9.00;8.70;;;12.60;99.90;;;;;;5123964;28;20237;-81
2021/12/31 01:58:05;;;;;;;9.20;8.90;;;12.60;99.90;;;;;;5123066;28;20243;-81
2021/12/31 02:00:35;;;;;;;9.17;8.87;;;12.60;99.90;;;;;;5122731;28;20240;-81
2021/12/31 02:03:03;;;;;;;9.13;8.83;;;12.60;99.90;;;;;;5120571;28;20217;-81
2021/12/31 02:05:31;;;;;;;9.30;9.00;;;12.60;99.90;;;;;;5117603;27;20228;-81
2021/12/31 02:07:59;;;;;;;9.10;8.80;;;12.50;99.90;;;;;;5118646;28;20233;-81
2021/12/31 02:10:28;;;;;;;9.30;9.00;;;12.60;99.90;;;;;;5119470;27;20303;-81
2021/12/31 02:12:57;;;;;;;9.27;8.97;;;12.60;99.90;;;;;;5133766;27;20227;-79
2021/12/31 02:15:26;;;;;;;9.20;8.90;;;12.50;99.90;;;;;;5142473;27;20209;-79
2021/12/31 02:17:56;;;;;;;9.10;8.80;;;12.60;99.90;;;;;;5143041;27;20229;-79
2021/12/31 02:20:40;;;;;;;9.20;8.90;;;12.50;99.90;;;;;;5126782;28;20225;-82
2021/12/31 02:23:08;;;;;;;9.03;8.73;;;12.50;99.90;;;;;;5124700;27;20240;-81
2021/12/31 02:25:37;;;;;;;8.97;8.67;;;12.50;99.90;;;;;;5124268;28;20229;-82
2021/12/31 02:28:06;;;;;;;9.23;8.93;;;12.50;99.90;;;;;;5124010;28;20256;-82
2021/12/31 02:30:33;;;;;;;8.90;8.60;;;12.40;99.90;;;;;;5123082;27;20382;-82
2021/12/31 02:33:03;;;;;;;9.20;8.90;;;12.50;99.90;;;;;;5122742;27;20306;-81
2021/12/31 02:35:33;;;;;;;9.13;8.83;;;12.40;99.90;;;;;;5122819;28;20252;-82
2021/12/31 02:38:01;;;;;;;9.40;9.10;;;12.40;99.90;;;;;;5122454;28;20225;-82
2021/12/31 02:40:29;;;;;;;9.30;9.00;;;12.30;99.90;;;;;;5122971;27;20225;-81
2021/12/31 02:42:58;;;;;;;9.47;9.17;;;12.30;99.90;;;;;;5122211;28;20262;-82
2021/12/31 02:45:30;;;;;;;9.10;8.80;;;12.30;99.90;;;;;;5122278;28;20225;-82
2021/12/31 02:48:00;;;;;;;9.23;8.93;;;12.30;99.90;;;;;;5125309;28;20236;-81
2021/12/31 02:50:33;;;;;;;8.90;8.60;;;12.30;99.90;;;;;;5124201;28;20279;-81
2021/12/31 02:53:05;;;;;;;9.50;9.20;;;12.30;99.90;;;;;;5120928;28;20777;-82
2021/12/31 02:55:36;;;;;;;9.00;8.70;;;12.40;99.90;;;;;;5121589;27;21063;-82
2021/12/31 02:58:05;;;;;;;9.00;8.70;;;12.30;99.90;;;;;;5121905;27;20233;-80
2021/12/31 03:00:36;;;;;;;9.17;8.87;;;12.30;99.90;;;;;;5121072;28;20228;-81
2021/12/31 03:03:06;;;;;;;8.57;8.37;;;12.40;99.90;;;;;;5121985;28;20232;-82
2021/12/31 03:05:35;;;;;;;9.00;8.70;;;12.40;99.90;;;;;;5121819;27;20233;-82
2021/12/31 03:08:08;;;;;;;9.10;8.80;;;12.30;99.90;;;;;;5121037;27;20255;-82
2021/12/31 03:10:37;;;;;;;8.70;8.50;;;12.30;99.90;;;;;;5121547;28;20255;-81
2021/12/31 03:13:06;;;;;;;9.03;8.73;;;12.30;99.90;;;;;;5121464;28;20243;-82
2021/12/31 03:15:34;;;;;;;8.97;8.67;;;12.30;99.90;;;;;;5121490;27;20245;-81
2021/12/31 03:18:03;;;;;;;9.17;8.87;;;12.30;99.90;;;;;;5121973;28;20251;-82
2021/12/31 03:20:38;;;;;;;8.97;8.67;;;12.20;99.90;;;;;;5121416;28;20251;-82
2021/12/31 03:23:07;;;;;;;8.70;8.50;;;12.20;99.90;;;;;;5121374;27;20224;-81
2021/12/31 03:25:36;;;;;;;8.60;8.40;;;12.20;99.90;;;;;;5120808;27;20260;-83
2021/12/31 03:28:05;;;;;;;9.00;8.70;;;12.20;99.90;;;;;;5132566;28;20244;-82
2021/12/31 03:30:33;;;;;;;9.10;8.80;;;12.10;99.90;;;;;;5127361;28;20447;-82
2021/12/31 03:33:01;;;;;;;8.60;8.40;;;12.10;99.90;;;;;;5125879;27;20247;-81
2021/12/31 03:35:28;;;;;;;8.93;8.63;;;12.10;99.90;;;;;;5125375;28;20233;-82
2021/12/31 03:37:56;;;;;;;8.73;8.53;;;12.10;99.90;;;;;;5124168;28;20359;-82
2021/12/31 03:40:25;;;;;;;8.67;8.47;;;12.10;99.90;;;;;;5123987;28;20294;-82
2021/12/31 03:42:53;;;;;;;8.63;8.43;;;12.10;99.90;;;;;;5127515;28;20236;-82
2021/12/31 03:45:21;;;;;;;8.73;8.53;;;12.10;99.90;;;;;;5142994;27;20208;-80
2021/12/31 03:47:49;;;;;;;8.60;8.40;;;12.10;99.90;;;;;;5143577;27;20227;-80
2021/12/31 03:50:17;;;;;;;8.87;8.57;;;12.10;99.90;;;;;;5143384;27;20205;-79
2021/12/31 03:52:44;;;;;;;9.00;8.70;;;12.10;99.90;;;;;;5143277;27;20216;-80
2021/12/31 03:55:12;;;;;;;9.00;8.70;;;12.10;99.90;;;;;;5142410;27;20217;-79
2021/12/31 03:57:42;;;;;;;9.00;8.70;;;12.10;99.90;;;;;;5142181;27;20213;-78
2021/12/31 04:00:14;;;;;;;9.20;8.90;;;12.10;99.90;;;;;;5142075;27;20221;-80
2021/12/31 04:02:42;;;;;;;9.00;8.70;;;12.10;99.90;;;;;;5141344;27;20213;-81
2021/12/31 04:05:10;;;;;;;9.00;8.70;;;12.10;99.90;;;;;;5140187;28;20335;-81
2021/12/31 04:07:38;;;;;;;9.20;8.90;;;12.10;99.90;;;;;;5128389;28;20229;-82
2021/12/31 04:10:07;;;;;;;9.10;8.80;;;12.10;99.90;;;;;;5122898;28;20228;-82
2021/12/31 04:12:35;;;;;;;9.00;8.70;;;12.10;99.90;;;;;;5121029;28;20225;-81
2021/12/31 04:15:05;;;;;;;9.20;8.90;;;12.10;99.90;;;;;;5122188;28;20228;-81
2021/12/31 04:17:33;;;;;;;9.10;8.80;;;12.10;99.90;;;;;;5123884;27;20708;-82
2021/12/31 04:20:01;;;;;;;8.77;8.50;;;12.10;99.90;;;;;;5126961;27;20225;-79
2021/12/31 04:22:30;;;;;;;9.10;8.80;;;12.00;99.90;;;;;;5140669;27;20231;-79
2021/12/31 04:24:58;;;;;;;8.90;8.60;;;12.10;99.90;;;;;;5140830;27;20224;-80
2021/12/31 04:27:26;;;;;;;8.70;8.50;;;12.10;99.90;;;;;;5131935;27;20233;-81
2021/12/31 04:29:53;;;;;;;9.33;9.03;;;12.00;99.90;;;;;;5123806;28;20227;-82
2021/12/31 04:32:26;;;;;;;8.70;8.47;;;12.00;99.90;;;;;;5123281;28;20225;-81
2021/12/31 04:34:54;;;;;;;8.90;8.60;;;12.00;99.90;;;;;;5127226;28;20233;-81
2021/12/31 04:37:21;;;;;;;9.30;9.00;;;12.00;99.90;;;;;;5125479;27;20263;-81
2021/12/31 04:39:49;;;;;;;9.20;8.90;;;12.00;99.90;;;;;;5124503;28;20259;-81
2021/12/31 04:42:17;;;;;;;9.30;9.00;;;12.00;99.90;;;;;;5122220;28;20228;-83
2021/12/31 04:44:45;;;;;;;9.23;8.93;;;12.00;99.90;;;;;;5120317;28;20229;-82
2021/12/31 04:47:13;;;;;;;9.20;8.90;;;12.00;99.90;;;;;;5120522;28;20239;-81
2021/12/31 04:49:42;;;;;;;9.13;8.83;;;12.00;99.90;;;;;;5119848;28;20236;-81
2021/12/31 04:52:10;;;;;;;9.00;8.70;;;12.00;99.90;;;;;;5119644;28;20317;-80
2021/12/31 04:54:37;;;;;;;9.20;8.90;;;12.00;99.90;;;;;;5120264;27;20275;-81
2021/12/31 04:57:06;;;;;;;8.80;8.60;;;12.00;99.90;;;;;;5119722;28;20289;-82
2021/12/31 04:59:34;;;;;;;9.13;8.83;;;12.00;99.90;;;;;;5120203;28;20232;-82
2021/12/31 05:02:02;;;;;;;9.00;8.70;;;12.00;99.90;;;;;;5120254;28;20282;-82
2021/12/31 05:04:30;;;;;;;9.10;8.80;;;12.00;99.90;;;;;;5119928;28;20266;-81
2021/12/31 05:06:59;;;;;;;8.70;8.50;;;12.00;99.90;;;;;;5119713;27;20228;-82
2021/12/31 05:09:27;;;;;;;9.00;8.70;;;12.00;99.90;;;;;;5120045;28;20236;-81
2021/12/31 05:11:54;;;;;;;8.80;8.60;;;12.00;99.90;;;;;;5120577;28;20255;-82
2021/12/31 05:14:22;;;;;;;8.67;8.47;;;12.00;99.90;;;;;;5120640;27;20220;-82
2021/12/31 05:16:50;;;;;;;8.70;8.50;;;12.00;99.90;;;;;;5120750;28;20236;-82
2021/12/31 05:19:18;;;;;;;8.70;8.50;;;12.00;99.90;;;;;;5121450;28;20228;-82
2021/12/31 05:21:46;;;;;;;9.07;8.77;;;11.90;99.90;;;;;;5120356;28;20297;-81
2021/12/31 05:24:16;;;;;;;9.17;8.87;;;12.00;99.90;;;;;;5120156;28;20208;-81
2021/12/31 05:26:44;;;;;;;9.00;8.70;;;12.00;99.90;;;;;;5120823;28;20228;-82
2021/12/31 05:29:11;;;;;;;9.30;9.00;;;12.00;99.90;;;;;;5124726;28;20240;-82
2021/12/31 05:31:39;;;;;;;9.23;8.93;;;11.90;99.90;;;;;;5121392;28;20247;-81
2021/12/31 05:34:07;;;;;;;9.10;8.80;;;11.90;99.90;;;;;;5118465;28;20229;-81
2021/12/31 05:36:35;;;;;;;9.03;8.73;;;11.90;99.90;;;;;;5119451;28;20237;-81
2021/12/31 05:39:02;;;;;;;9.37;9.07;;;11.90;99.90;;;;;;5118802;27;20233;-80
2021/12/31 05:41:32;;;;;;;9.00;8.70;;;11.90;99.90;;;;;;5119423;28;20280;-81
2021/12/31 05:44:00;;;;;;;9.13;8.83;;;11.90;99.90;;;;;;5119384;28;20274;-82
2021/12/31 05:46:27;;;;;;;9.03;8.73;;;11.90;99.90;;;;;;5118987;28;20290;-81
2021/12/31 05:48:55;;;;;;;9.30;9.00;;;11.90;99.90;;;;;;5120491;27;20231;-81
2021/12/31 05:51:26;;;;;;;9.03;8.73;;;11.90;99.90;;;;;;5123125;28;20232;-82
2021/12/31 05:53:53;;;;;;;9.00;8.70;;;11.80;99.90;;;;;;5123414;28;20270;-82
2021/12/31 05:56:21;;;;;;;9.20;8.90;;;11.80;99.90;;;;;;5115935;22;20234;-80
2021/12/31 05:58:50;;;;;;;9.00;8.70;;;11.80;99.90;;;;;;5056113;28;20238;-81
2021/12/31 06:01:18;;;;;;;9.20;8.90;;;11.80;99.90;;;;;;5063944;28;20231;-83
2021/12/31 06:03:46;;;;;;;9.20;8.90;;;11.70;99.90;;;;;;5064346;28;20388;-81
2021/12/31 06:06:14;;;;;;;9.20;8.90;;;11.80;99.90;;;;;;5064577;28;20222;-82
2021/12/31 06:08:42;;;;;;;9.07;8.77;;;11.80;99.90;;;;;;5064744;28;20235;-81
2021/12/31 06:11:10;;;;;;;9.17;8.87;;;11.80;99.90;;;;;;5064595;28;20222;-82
2021/12/31 06:13:38;;;;;;;9.17;8.87;;;11.80;99.90;;;;;;5065338;28;20221;-82
2021/12/31 06:16:08;;;;;;;9.40;9.10;;;11.80;99.90;;;;;;5064625;28;20250;-81
2021/12/31 06:18:37;;;;;;;9.40;9.10;;;11.70;99.90;;;;;;5065888;28;20249;-81
2021/12/31 06:21:04;;;;;;;9.37;9.07;;;11.70;99.90;;;;;;5064921;28;20250;-82
2021/12/31 06:23:32;;;;;;;9.40;9.10;;;11.70;99.90;;;;;;5064032;28;20238;-81
2021/12/31 06:26:00;;;;;;;9.30;9.00;;;11.70;99.90;;;;;;5063121;28;20239;-82
2021/12/31 06:28:28;;;;;;;9.50;9.20;;;11.70;99.90;;;;;;5064192;28;20237;-83
2021/12/31 06:30:55;;;;;;;9.20;8.90;;;11.70;99.90;;;;;;5063288;28;20278;-82
2021/12/31 06:33:25;;;;;;;9.30;9.00;;;11.70;99.90;;;;;;5062976;28;20223;-82
2021/12/31 06:35:53;;;;;;;9.00;8.70;;;11.70;99.90;;;;;;5062976;28;20234;-81
2021/12/31 06:38:21;;;;;;;9.20;8.90;;;11.70;99.90;;;;;;5063632;28;20242;-82
2021/12/31 06:40:48;;;;;;;8.77;8.57;;;11.70;99.90;;;;;;5064591;28;20223;-82
2021/12/31 06:43:16;;;;;;;9.20;8.90;;;11.70;99.90;;;;;;5074826;28;20219;-82
2021/12/31 06:45:44;;;;;;;9.20;8.90;;;11.60;99.90;;;;;;5063958;28;20297;-81
2021/12/31 06:48:13;;;;;;;9.27;8.97;;;11.60;99.90;;;;;;5065441;28;20241;-83
2021/12/31 06:50:42;;;;;;;9.13;8.83;;;11.60;99.90;;;;;;5063264;28;20229;-82
2021/12/31 06:53:10;;;;;;;9.50;9.20;;;11.60;99.90;;;;;;5063871;28;20269;-83
2021/12/31 06:55:37;;;;;;;9.80;9.50;;;11.60;99.90;;;;;;5063357;28;20238;-82
2021/12/31 06:58:05;;;;;;;9.50;9.20;;;11.60;99.90;;;;;;5063572;28;20281;-82
2021/12/31 07:00:33;;;;;;;9.60;9.30;;;11.60;99.90;;;;;;5071538;28;20223;-82
2021/12/31 07:03:09;;;;;;;9.40;9.10;;;11.50;99.90;;;;;;5080890;28;20263;-82
2021/12/31 07:05:38;;;;;;;9.50;9.20;;;11.50;99.90;;;;;;5071348;28;20234;-83
2021/12/31 07:08:07;;;;;;;9.50;9.20;;;11.60;99.90;;;;;;5066270;28;20329;-83
2021/12/31 07:10:35;;;;;;;9.20;8.90;;;11.60;99.90;;;;;;5066837;28;20296;-82
2021/12/31 07:13:10;;;;;;;9.40;9.10;;;11.60;99.90;;;;;;5068570;28;20288;-82
2021/12/31 07:15:40;;;;;;;9.10;8.80;;;11.60;99.90;;;;;;5076573;28;20233;-82
2021/12/31 07:18:08;;;;;;;9.40;9.10;;;11.60;99.90;;;;;;5081826;28;20216;-82
2021/12/31 07:20:36;;;;;;;9.20;8.90;;;11.60;99.90;;;;;;5081607;28;20223;-82
2021/12/31 07:23:10;;;;;;;9.20;8.90;;;11.60;99.90;;;;;;5081438;28;20231;-84
2021/12/31 07:25:39;;;;;;;8.90;8.70;;;11.60;99.90;;;;;;5081362;28;20226;-83
2021/12/31 07:28:07;;;;;;;9.30;9.00;;;11.60;99.90;;;;;;5081326;28;20227;-83
2021/12/31 07:30:36;;;;;;;8.95;8.75;;;11.70;99.90;;;;;;5080821;28;20426;-82
2021/12/31 07:33:04;;;;;;;9.00;8.70;;;11.70;99.90;;;;;;5080920;28;20230;-83
2021/12/31 07:35:32;;;;;;;9.07;8.80;;;11.70;99.90;;;;;;5080938;28;20245;-83
2021/12/31 07:38:00;;;;;;;8.60;8.40;;;11.80;99.90;;;;;;5079950;28;20233;-83
2021/12/31 07:40:38;;;;;;;9.07;8.80;;;11.80;99.90;;;;;;5080190;28;20230;-85
2021/12/31 07:43:06;;;;;;;8.70;8.50;;;11.80;99.90;;;;;;5079881;28;20215;-84
2021/12/31 07:45:34;;;;;;;8.80;8.60;;;11.80;99.90;;;;;;5079558;28;21011;-85
2021/12/31 07:48:04;;;;;;;8.80;8.60;;;11.90;99.90;;;;;;5075032;28;20222;-84
2021/12/31 07:50:33;;;;;;;8.70;8.50;;;11.90;99.90;;;;;;5075538;28;20233;-84
2021/12/31 07:53:02;;;;;;;8.80;8.60;;;11.90;99.90;;;;;;5069851;28;20234;-84
2021/12/31 07:55:34;;;;;;;8.77;8.57;;;11.80;99.90;;;;;;5065578;28;20243;-84
2021/12/31 07:58:02;;;;;;;9.10;8.80;;;11.80;99.90;;;;;;5064687;28;20235;-84
2021/12/31 08:00:30;;;;;;;9.20;8.90;;;11.90;99.90;;;;;;5063495;28;20222;-84
2021/12/31 08:02:59;;;;;;;9.37;9.07;;;11.90;99.90;;;;;;5063640;28;20227;-84
2021/12/31 08:05:31;;;;;;;9.13;8.83;;;11.90;99.90;;;;;;5064599;28;20242;-84
2021/12/31 08:08:04;;;;;;;8.90;8.70;;;12.00;99.90;;;;;;5063968;28;21025;-86
2021/12/31 08:10:38;;;;;;;8.60;8.40;;;12.00;99.90;;;;;;5066452;28;20230;-84
2021/12/31 08:13:06;;;;;;;8.60;8.40;;;12.10;99.90;;;;;;5063564;28;20219;-84
2021/12/31 08:15:34;;;;;;;8.77;8.57;;;12.10;99.90;;;;;;5062893;28;20245;-83
2021/12/31 08:18:02;;;;;;;8.33;8.13;;;12.10;99.90;;;;;;5063242;28;20242;-84
2021/12/31 08:20:30;;;;;;;8.70;8.50;;;12.20;99.90;;;;;;5065497;28;20253;-83
2021/12/31 08:23:07;;;;;;;8.80;8.60;;;12.20;99.90;;;;;;5063642;28;20233;-83
2021/12/31 08:25:37;;;;;;;8.67;8.47;;;12.20;99.90;;;;;;5063098;28;20230;-83
2021/12/31 08:28:05;;;;;;;8.87;8.67;;;12.20;99.90;;;;;;5062783;28;20223;-84
2021/12/31 08:30:34;;;;;;;8.83;8.63;;;12.30;99.90;;;;;;5063773;28;20342;-85
2021/12/31 08:33:02;;;;;;;9.20;8.90;;;12.30;99.90;;;;;;5064458;28;20220;-84
2021/12/31 08:35:31;;;;;;;8.80;8.60;;;12.30;99.90;;;;;;5064733;28;20305;-83
2021/12/31 08:37:59;;;;;;;8.80;8.60;;;12.20;99.90;;;;;;5064220;28;20234;-84
2021/12/31 08:40:27;;;;;;;8.40;8.20;;;12.20;99.90;;;;;;5072869;28;20214;-84
2021/12/31 08:42:57;;;;;;;8.70;8.50;;;12.20;99.90;;;;;;5067535;28;20231;-84
2021/12/31 08:45:29;;;;;;;8.43;8.23;;;12.20;99.90;;;;;;5066458;28;20241;-84
2021/12/31 08:47:58;;;;;;;8.60;8.40;;;12.20;99.90;;;;;;5065914;28;20223;-83
2021/12/31 08:50:27;;;;;;;8.30;8.10;;;12.20;99.90;;;;;;5065728;28;20347;-83
2021/12/31 08:52:56;;;;;;;8.53;8.33;;;12.20;99.90;;;;;;5064748;28;20227;-84
2021/12/31 08:55:24;;;;;;;8.50;8.30;;;12.20;99.90;;;;;;5064094;28;20238;-84
2021/12/31 08:57:52;;;;;;;8.60;8.40;;;12.30;99.90;;;;;;5064733;28;20241;-83
2021/12/31 09:00:22;;;;;;;8.43;8.23;;;12.30;99.90;;;;;;5057384;28;20238;-83
2021/12/31 09:02:50;;;;;;;8.70;8.50;;;12.30;99.90;;;;;;5064700;28;20241;-84
2021/12/31 09:05:22;;;;;;;8.47;8.27;;;12.30;99.90;;;;;;5064384;28;20235;-83
2021/12/31 09:07:51;;;;;;;8.20;8.00;;;12.40;99.90;;;;;;5056237;28;20234;-84
2021/12/31 09:10:19;;;;;;;7.70;7.50;;;12.40;99.90;;;;;;5064928;28;20230;-84
2021/12/31 09:12:47;;;;;;;7.80;7.60;;;12.50;99.90;;;;;;5056347;28;20223;-84
2021/12/31 09:15:15;;;;;;;8.20;8.00;;;12.60;99.90;;;;;;5065640;28;20234;-83
2021/12/31 09:17:47;;;;;;;8.30;8.10;;;12.60;99.90;;;;;;5064631;28;20237;-83
2021/12/31 09:20:15;;;;;;;8.47;8.27;;;12.60;99.90;;;;;;5062890;28;20237;-84
2021/12/31 09:22:43;;;;;;;8.70;8.50;;;12.60;99.90;;;;;;5063354;28;20230;-85
2021/12/31 09:25:11;;;;;;;8.70;8.50;;;12.60;99.90;;;;;;5063631;28;20337;-85
2021/12/31 09:27:39;;;;;;;8.80;8.60;;;12.60;99.90;;;;;;5062701;28;20285;-84
2021/12/31 09:30:10;;;;;;;9.00;8.80;;;12.60;99.90;;;;;;5062582;28;20238;-85
2021/12/31 09:32:38;;;;;;;8.50;8.30;;;12.60;99.90;;;;;;5063454;28;20253;-85
2021/12/31 09:35:09;;;;;;;8.57;8.37;;;12.60;99.90;;;;;;5063208;28;20231;-85
2021/12/31 09:37:37;;;;;;;8.53;8.33;;;12.60;99.90;;;;;;5062566;28;20289;-84
2021/12/31 09:40:07;;;;;;;8.40;8.20;;;12.70;99.90;;;;;;5065410;28;20269;-84
2021/12/31 09:42:36;;;;;;;8.30;8.10;;;12.90;99.90;;;;;;5068349;28;20215;-84
2021/12/31 09:45:06;;;;;;;8.60;8.40;;;13.10;99.90;;;;;;5063701;28;20238;-85
2021/12/31 09:47:34;;;;;;;7.80;7.60;;;13.30;99.90;;;;;;5064551;28;20245;-85
2021/12/31 09:50:02;;;;;;;8.13;7.93;;;13.50;99.90;;;;;;5062670;28;20234;-84
2021/12/31 09:52:36;;;;;;;8.30;8.10;;;13.70;99.90;;;;;;5065907;28;20250;-84
2021/12/31 09:55:04;;;;;;;8.07;7.87;;;13.90;99.90;;;;;;5069989;28;20257;-84
2021/12/31 09:57:32;;;;;;;8.00;7.80;;;14.10;99.90;;;;;;5066907;28;20242;-84
2021/12/31 10:00:03;;;;;;;8.20;8.00;;;14.30;99.90;;;;;;5065070;28;20230;-84
2021/12/31 10:02:33;;;;;;;8.20;8.00;;;14.30;99.90;;;;;;5065498;28;20274;-85
2021/12/31 10:05:04;;;;;;;8.13;7.93;;;14.50;99.90;;;;;;5064146;28;20238;-84
2021/12/31 10:07:34;;;;;;;8.30;8.10;;;14.70;99.90;;;;;;5064893;28;20238;-84
2021/12/31 10:10:12;;;;;;;8.40;8.20;;;14.90;99.90;;;;;;5065824;28;20223;-84
2021/12/31 10:12:52;;;;;;;8.50;8.30;;;15.10;99.90;;;;;;5066884;28;20218;-84
2021/12/31 10:15:24;;;;;;;8.43;8.23;;;15.40;99.90;;;;;;5072710;28;20230;-84
2021/12/31 10:17:53;;;;;;;8.60;8.40;;;15.50;99.90;;;;;;5073956;28;20214;-84
2021/12/31 10:20:22;;;;;;;8.50;8.30;;;15.60;99.90;;;;;;5068372;28;20237;-84
2021/12/31 10:23:13;;;;;;;8.65;8.45;;;15.70;99.90;;;;;;5064802;28;20233;-84
2021/12/31 10:25:41;;;;;;;8.70;8.50;;;15.80;99.90;;;;;;5064958;28;20238;-84
2021/12/31 10:28:16;;;;;;;8.85;8.65;;;15.80;99.90;;;;;;5067522;28;20241;-84
2021/12/31 10:30:45;;;;;;;8.45;8.25;;;15.70;99.90;;;;;;5064563;28;20236;-85
2021/12/31 10:33:13;;;;;;;8.50;8.30;;;15.60;99.90;;;;;;5065654;28;20219;-83
2021/12/31 10:35:47;;;;;;;8.35;8.15;;;15.60;99.90;;;;;;5069334;28;20226;-83
2021/12/31 10:38:36;;;;;;;8.53;8.33;;;15.60;99.90;;;;;;5076823;28;20234;-83
2021/12/31 10:41:05;;;;;;;8.80;8.60;;;15.80;99.90;;;;;;5067861;28;20235;-83
2021/12/31 10:43:33;;;;;;;8.52;8.32;;;16.00;99.90;;;;;;5069533;28;20227;-84
2021/12/31 10:46:04;;;;;;;8.70;8.50;;;16.00;99.90;;;;;;5067686;28;20752;-84
2021/12/31 10:48:43;;;;;;;8.68;8.48;;;15.90;99.90;;;;;;5065908;28;20706;-81
2021/12/31 10:51:13;;;;;;;8.50;8.30;;;15.90;99.90;;;;;;5065110;28;20234;-83
2021/12/31 10:53:49;;;;;;;8.43;8.23;;;15.90;99.90;;;;;;5066457;28;20265;-84
2021/12/31 10:56:18;;;;;;;8.40;8.20;;;16.00;99.90;;;;;;5062767;28;20373;-80
2021/12/31 10:58:58;;;;;;;8.60;8.40;;;15.90;99.90;;;;;;5062125;28;20237;-81
2021/12/31 11:01:26;;;;;;;8.63;8.43;;;15.90;99.90;;;;;;5063724;28;20288;-81
2021/12/31 11:03:55;;;;;;;8.57;8.38;;;16.10;99.90;;;;;;5063389;28;20235;-81
2021/12/31 11:06:23;;;;;;;8.50;8.30;;;16.10;99.90;;;;;;5063782;28;20230;-81
2021/12/31 11:08:55;;;;;;;8.75;8.55;;;16.10;99.90;;;;;;5063248;28;20234;-83
2021/12/31 11:11:24;;;;;;;8.48;8.27;;;16.20;99.90;;;;;;5062174;28;20254;-82
2021/12/31 11:13:53;;;;;;;8.68;8.48;;;16.30;99.90;;;;;;5066621;28;20253;-81
2021/12/31 11:16:21;;;;;;;8.52;8.32;;;16.40;99.90;;;;;;5070070;28;20253;-81
2021/12/31 11:18:51;;;;;;;8.20;8.00;;;16.40;99.90;;;;;;5078815;28;20211;-83
2021/12/31 11:21:19;;;;;;;8.35;8.15;;;16.40;99.90;;;;;;5074407;28;20219;-84
2021/12/31 11:23:47;;;;;;;8.10;7.90;;;16.40;99.90;;;;;;5063779;28;20265;-82
2021/12/31 11:26:29;;;;;;;8.00;7.80;;;16.30;99.90;;;;;;5063581;28;20243;-83
2021/12/31 11:29:15;;;;;;;8.25;8.05;;;16.10;99.90;;;;;;5065221;28;20294;-82
2021/12/31 11:31:46;;;;;;;8.25;8.05;;;16.10;99.90;;;;;;5066200;28;20246;-82
2021/12/31 11:34:16;;;;;;;8.30;8.10;;;16.20;99.90;;;;;;5065743;28;20235;-83
2021/12/31 11:36:51;;;;;;;8.35;8.15;;;16.40;99.90;;;;;;5064708;28;20238;-83
2021/12/31 11:39:25;;;;;;;8.40;8.20;;;16.50;99.90;;;;;;5065507;28;20233;-81
2021/12/31 11:41:57;;;;;;;8.27;8.07;;;16.80;99.90;;;;;;5063961;28;20373;-83
2021/12/31 11:44:27;;;;;;;8.38;8.18;;;16.80;99.90;;;;;;5065654;28;20219;-84
2021/12/31 11:47:13;;;;;;;8.38;8.18;;;16.90;99.90;;;;;;5063471;28;20313;-83
2021/12/31 11:49:43;;;;;;;8.10;7.90;;;17.20;99.90;;;;;;5064023;28;20238;-84
2021/12/31 11:52:14;;;;;;;8.25;8.05;;;17.20;99.90;;;;;;5064180;28;20238;-83
2021/12/31 11:54:43;;;;;;;8.68;8.48;;;17.30;99.90;;;;;;5064611;28;20227;-83
2021/12/31 11:57:19;;;;;;;8.43;8.23;;;17.30;99.90;;;;;;5107375;22;20259;-81
2021/12/31 11:59:58;;;;;;;8.70;8.50;;;17.30;99.90;;;;;;5098263;28;20268;-82
2021/12/31 12:02:44;;;;;;;8.55;8.35;;;17.40;99.90;;;;;;5108532;28;20221;-81
2021/12/31 12:05:15;;;;;;;8.70;8.50;;;17.30;99.90;;;;;;5110305;28;20236;-81
2021/12/31 12:07:52;;;;;;;8.52;8.32;;;17.20;99.90;;;;;;5090659;28;20294;-82
2021/12/31 12:10:30;;;;;;;8.80;8.60;;;17.10;99.90;;;;;;5089171;28;20241;-82
2021/12/31 12:13:34;;;;;;;8.88;8.68;;;17.10;99.90;;;;;;5115670;28;20236;-80
2021/12/31 12:16:05;;;;;;;9.18;8.90;;;17.40;99.90;;;;;;5126125;28;20216;-81
2021/12/31 12:21:38;;;;;;;9.10;8.90;;;17.80;99.90;;;;;;5129755;28;20224;-80
2021/12/31 12:24:11;;;;;;;8.80;8.60;;;18.00;99.90;;;;;;5129445;28;20248;-80
2021/12/31 12:26:38;;;;;;;8.70;8.50;;;18.20;99.90;;;;;;5124342;28;20225;-80
2021/12/31 12:29:09;;;;;;;8.82;8.63;;;18.30;99.90;;;;;;5114086;28;20263;-79
2021/12/31 12:31:40;;;;;;;8.60;8.40;;;18.30;99.90;;;;;;5107865;28;20233;-81
2021/12/31 12:36:54;;;;;;;8.48;8.27;;;18.30;99.90;;;;;;5101581;28;20252;-80
2021/12/31 12:39:27;;;;;;;8.60;8.40;;;18.20;99.90;;;;;;5088805;28;20265;-79
2021/12/31 12:41:55;;;;;;;8.88;8.68;;;18.30;99.90;;;;;;5082737;28;20237;-78
2021/12/31 12:44:25;;;;;;;8.52;8.32;;;18.20;99.90;;;;;;5082919;28;20320;-78
2021/12/31 12:46:54;;;;;;;8.43;8.23;;;18.10;99.90;;;;;;5082683;28;20222;-77
2021/12/31 12:49:24;;;;;;;8.30;8.10;;;18.00;99.90;;;;;;5117115;28;20319;-79
2021/12/31 12:51:52;;;;;;;8.48;8.27;;;17.90;99.90;;;;;;5126718;28;20247;-78
2021/12/31 12:54:22;;;;;;;8.80;8.60;;;17.90;99.90;;;;;;5132063;28;20221;-77
2021/12/31 12:56:50;;;;;;;8.88;8.68;;;17.90;99.90;;;;;;5134259;28;20240;-77
2021/12/31 12:59:21;;;;;;;9.07;8.88;;;17.80;99.90;;;;;;5132242;28;20225;-77
2021/12/31 13:01:52;;;;;;;8.60;8.40;;;17.60;99.90;;;;;;5131534;28;20243;-78
2021/12/31 13:04:24;;;;;;;8.38;8.18;;;17.50;99.90;;;;;;5123944;28;20233;-78
2021/12/31 13:06:58;;;;;;;8.30;8.10;;;17.20;99.90;;;;;;5126683;28;20251;-78
2021/12/31 13:09:30;;;;;;;8.10;7.90;;;16.90;99.90;;;;;;5125881;28;20229;-77
2021/12/31 13:11:59;;;;;;;8.35;8.15;;;16.70;99.90;;;;;;5124329;28;20232;-78